Elmer, OK (73539)

7:18 PM CDT on August 26, 2016 (GMT -0500)
Airplane Park | | Change Station

Elev 1391 ft 34.64 °N, 99.32 °W | Updated 11 seconds ago

Mostly Cloudy
Mostly Cloudy
87.3 °F
Feels Like 87 °F
N
0.0
Wind Variable Wind from SSW
Gusts 0.0 mph

Today
High -- | Low -- °F
--% Chance of Precip.
Yesterday
High -- | Low -- °F
Precip. -- in
Pressure 29.93 in
Visibility 10.0 miles
Clouds Mostly Cloudy 14000 ft
Heat Index 87 °F
Dew Point 61 °F
Humidity 41%
Rainfall 0.00 in
Snow Depth Not available.
7:06 AM 8:10 PM
Waning Crescent, 30% visible
METAR KLTS 262358Z AUTO 25002KT 10SM BKN140 30/17 A2997 RMK AO2 SLP135 T03000173 10320 20289 403200183 55009
Pressure 29.93 in
Visibility 10.0 miles
Clouds Mostly Cloudy 14000 ft
Heat Index 87 °F
Dew Point 61 °F
Humidity 41%
Rainfall 0.00 in
Snow Depth Not available.
7:06 AM 8:10 PM
Waning Crescent, 30% visible
METAR KLTS 262358Z AUTO 25002KT 10SM BKN140 30/17 A2997 RMK AO2 SLP135 T03000173 10320 20289 403200183 55009

10-Day Weather Forecast

Almanac

Astronomy

Aug. 26, 2016 Rise Set
Actual Time
Civil Twilight
Nautical Twilight
Astronomical Twilight
Moon
Length of Visible Light
Length of Day
Tomorrow will be .
, % of the Moon is Illuminated

Today's Extremes

State Highs State Lows

Community

WunderPhotos

Upload Photos

1,935,257 photos uploaded!

WunderBlog® & News

Nearby

Air Quality

  Air Quality AQ Index Pollutant
Not available.

Snow Depth

Station Depth Elevation

Earthquake Activity

City Distance Mag. Time & Date
Minimum magnitude displayed is 2.5.

Coastal Water Temperatures

Place Temperature

Stations

Nearby Weather Stations

Station Location Temp. Windchill Dew Point Humidity Wind Precip. Elev Updated Type
                   

Watches & Warnings

There are currently no watches in effect.